NAV weather

Nevşehir Kapadokya Airport
Nevşehir, Nevşehir Province, Turkey

Public forecast

Using degrees Celsius for public forecast. Weather courtesy of forecast.io.

Current aviation weather report (METAR) for Nevşehir Kapadokya Airport

Report is more than 2 hours old.

Retrieved 2019/12/09 18:50 UTC (2 hours ago):

LTAZ 091850Z 22002KT 9999 BKN026 02/M01 Q1017

Aviation forecast (TAF) for Nevşehir Kapadokya Airport

Retrieved 2019/12/09 18:00 UTC (3 hours ago):

TAF LTAZ 091640Z 0918/1018 VRB02KT 9999 FEW012 BKN040 PROB40 1001/1005 4000 BR BECMG 1010/1013 SCT040